createdAt,value
2018-02-22T00:00:00.860Z,-4.40
2018-02-22T00:02:27.182Z,-4.30
2018-02-22T00:04:53.708Z,-4.30
2018-02-22T00:07:19.969Z,-4.30
2018-02-22T00:09:46.241Z,-4.30
2018-02-22T00:12:12.516Z,-4.30
2018-02-22T00:14:41.548Z,-4.40
2018-02-22T00:17:07.825Z,-4.40
2018-02-22T00:19:34.171Z,-4.40
2018-02-22T00:22:00.431Z,-4.40
2018-02-22T00:24:26.706Z,-4.60
2018-02-22T00:27:00.706Z,-4.50
2018-02-22T00:29:26.997Z,-4.50
2018-02-22T00:31:53.337Z,-4.50
2018-02-22T00:34:19.657Z,-4.50
2018-02-22T00:36:46.628Z,-4.70
2018-02-22T00:39:19.993Z,-4.70
2018-02-22T00:41:46.284Z,-4.80
2018-02-22T00:44:13.265Z,-4.80
2018-02-22T00:46:39.576Z,-4.90
2018-02-22T00:49:06.609Z,-4.80
2018-02-22T00:51:32.887Z,-4.90
2018-02-22T00:53:59.167Z,-4.80
2018-02-22T00:56:25.449Z,-4.80
2018-02-22T00:59:14.328Z,-4.90
2018-02-22T01:01:41.284Z,-5.00
2018-02-22T01:04:08.242Z,-5.00
2018-02-22T01:06:35.278Z,-5.00
2018-02-22T01:09:01.660Z,-5.00
2018-02-22T01:11:28.644Z,-5.10
2018-02-22T01:13:55.933Z,-5.20
2018-02-22T01:16:22.245Z,-5.10
2018-02-22T01:18:48.461Z,-5.20
2018-02-22T01:21:15.453Z,-5.20
2018-02-22T01:23:41.668Z,-5.20
2018-02-22T01:26:07.927Z,-5.20
2018-02-22T01:28:34.168Z,-5.20
2018-02-22T01:31:00.394Z,-5.20
2018-02-22T01:33:26.642Z,-5.30
2018-02-22T01:35:52.922Z,-5.30
2018-02-22T01:38:19.177Z,-5.30
2018-02-22T01:40:45.422Z,-5.30
2018-02-22T01:43:11.714Z,-5.40
2018-02-22T01:45:37.980Z,-5.40
2018-02-22T01:48:04.208Z,-5.40
2018-02-22T01:50:30.460Z,-5.40
2018-02-22T01:53:00.959Z,-5.40
2018-02-22T01:55:27.290Z,-5.40
2018-02-22T01:57:54.330Z,-5.50
2018-02-22T02:00:20.627Z,-5.50
2018-02-22T02:02:46.859Z,-5.50
2018-02-22T02:05:13.116Z,-5.50
2018-02-22T02:07:39.435Z,-5.50
2018-02-22T02:10:05.692Z,-5.60
2018-02-22T02:12:31.944Z,-5.70
2018-02-22T02:14:58.171Z,-5.70
2018-02-22T02:17:24.469Z,-5.80
2018-02-22T02:19:50.710Z,-5.80
2018-02-22T02:22:21.156Z,-5.90
2018-02-22T02:24:47.355Z,-6.00
2018-02-22T02:27:13.601Z,-6.00
2018-02-22T02:29:39.843Z,-6.00
2018-02-22T02:32:06.110Z,-6.00
2018-02-22T02:34:32.355Z,-6.00
2018-02-22T02:36:58.616Z,-6.00
2018-02-22T02:39:25.592Z,-6.00
2018-02-22T02:41:51.878Z,-6.00
2018-02-22T02:44:18.142Z,-6.00
2018-02-22T02:46:44.420Z,-6.00
2018-02-22T02:49:10.644Z,-6.00
2018-02-22T02:51:37.690Z,-6.10
2018-02-22T02:54:03.974Z,-6.10
2018-02-22T02:56:30.186Z,-6.20
2018-02-22T02:58:57.243Z,-6.30
2018-02-22T03:01:24.204Z,-6.30
2018-02-22T03:03:50.508Z,-6.40
2018-02-22T03:06:16.801Z,-6.30
2018-02-22T03:08:43.081Z,-6.40
2018-02-22T03:11:09.345Z,-6.30
2018-02-22T03:13:39.412Z,-6.30
2018-02-22T03:16:06.415Z,-6.30
2018-02-22T03:18:32.665Z,-6.30
2018-02-22T03:20:58.886Z,-6.30
2018-02-22T03:23:25.235Z,-6.30
2018-02-22T03:25:52.302Z,-6.40
2018-02-22T03:28:18.584Z,-6.40
2018-02-22T03:30:45.595Z,-6.50
2018-02-22T03:33:11.873Z,-6.50
2018-02-22T03:35:38.114Z,-6.50
2018-02-22T03:38:04.328Z,-6.60
2018-02-22T03:40:30.625Z,-6.60
2018-02-22T03:42:56.930Z,-6.70
2018-02-22T03:45:23.208Z,-6.70
2018-02-22T03:47:50.236Z,-6.70
2018-02-22T03:50:17.204Z,-6.70
2018-02-22T03:52:43.466Z,-6.70
2018-02-22T03:55:09.741Z,-6.70
2018-02-22T03:57:36.068Z,-6.80
2018-02-22T04:00:09.853Z,-6.80
2018-02-22T04:02:36.223Z,-6.80
2018-02-22T04:05:02.493Z,-6.70
2018-02-22T04:07:28.738Z,-6.70
2018-02-22T04:09:54.981Z,-6.70
2018-02-22T04:12:21.394Z,-6.70
2018-02-22T04:14:47.764Z,-6.80
2018-02-22T04:17:13.990Z,-6.80
2018-02-22T04:19:40.270Z,-6.80
2018-02-22T04:22:06.553Z,-6.80
2018-02-22T04:24:33.554Z,-6.80
2018-02-22T04:26:59.812Z,-6.90
2018-02-22T04:29:26.043Z,-6.90
2018-02-22T04:31:52.380Z,-6.90
2018-02-22T04:34:18.721Z,-6.90
2018-02-22T04:36:45.145Z,-6.90
2018-02-22T04:39:11.437Z,-6.90
2018-02-22T04:41:37.678Z,-6.90
2018-02-22T04:44:03.951Z,-7.00
2018-02-22T04:46:30.962Z,-6.90
2018-02-22T04:48:58.039Z,-6.90
2018-02-22T04:51:24.440Z,-7.00
2018-02-22T04:53:50.741Z,-7.00
2018-02-22T04:56:17.742Z,-7.10
2018-02-22T04:58:44.010Z,-7.10
2018-02-22T05:01:10.224Z,-7.10
2018-02-22T05:03:36.483Z,-7.10
2018-02-22T05:06:02.698Z,-7.10
2018-02-22T05:08:28.982Z,-7.20
2018-02-22T05:10:55.234Z,-7.10
2018-02-22T05:13:21.551Z,-7.10
2018-02-22T05:15:47.809Z,-7.20
2018-02-22T05:18:14.047Z,-7.20
2018-02-22T05:20:40.331Z,-7.20
2018-02-22T05:23:06.639Z,-7.20
2018-02-22T05:25:32.905Z,-7.20
2018-02-22T05:27:59.848Z,-7.20
2018-02-22T05:30:26.125Z,-7.20
2018-02-22T05:32:52.427Z,-7.20
2018-02-22T05:35:18.665Z,-7.20
2018-02-22T05:37:44.985Z,-7.30
2018-02-22T05:40:11.229Z,-7.30
2018-02-22T05:42:37.547Z,-7.30
2018-02-22T05:45:03.807Z,-7.30
2018-02-22T05:47:30.112Z,-7.30
2018-02-22T05:49:57.196Z,-7.30
2018-02-22T05:52:23.470Z,-7.40
2018-02-22T05:54:50.778Z,-7.40
2018-02-22T05:57:17.760Z,-7.40
2018-02-22T05:59:43.983Z,-7.40
2018-02-22T06:02:10.259Z,-7.40
2018-02-22T06:04:36.517Z,-7.30
2018-02-22T06:07:02.792Z,-7.30
2018-02-22T06:12:23.436Z,-7.30
2018-02-22T06:14:49.682Z,-7.30
2018-02-22T06:17:15.914Z,-7.20
2018-02-22T06:19:42.171Z,-7.20
2018-02-22T06:22:08.446Z,-7.10
2018-02-22T06:24:34.698Z,-7.20
2018-02-22T06:27:01.030Z,-7.20
2018-02-22T06:29:27.320Z,-7.10
2018-02-22T06:31:53.534Z,-7.10
2018-02-22T06:34:19.853Z,-7.10
2018-02-22T06:36:46.257Z,-7.10
2018-02-22T06:39:12.460Z,-7.10
2018-02-22T06:41:38.728Z,-7.10
2018-02-22T06:44:04.941Z,-7.00
2018-02-22T06:46:31.210Z,-7.00
2018-02-22T06:48:57.510Z,-7.00
2018-02-22T06:51:23.791Z,-6.90
2018-02-22T06:53:50.094Z,-6.90
2018-02-22T06:56:16.367Z,-6.80
2018-02-22T06:58:49.382Z,-6.80
2018-02-22T07:01:16.394Z,-6.60
2018-02-22T07:03:42.702Z,-6.60
2018-02-22T07:06:09.733Z,-6.40
2018-02-22T07:08:35.948Z,-6.40
2018-02-22T07:11:02.300Z,-6.30
2018-02-22T07:13:28.639Z,-6.20
2018-02-22T07:15:54.872Z,-6.20
2018-02-22T07:18:21.226Z,-6.10
2018-02-22T07:20:47.456Z,-5.90
2018-02-22T07:23:16.888Z,-5.70
2018-02-22T07:25:40.858Z,-5.70
2018-02-22T07:28:07.121Z,-5.70
2018-02-22T07:30:33.365Z,-5.60
2018-02-22T07:32:59.662Z,-5.60
2018-02-22T07:35:34.330Z,-5.50
2018-02-22T07:38:00.645Z,-5.50
2018-02-22T07:40:26.978Z,-5.40
2018-02-22T07:42:53.255Z,-5.20
2018-02-22T07:45:19.531Z,-4.90
2018-02-22T07:47:46.529Z,-4.20
2018-02-22T07:50:21.054Z,-4.20
2018-02-22T07:52:47.473Z,-3.80
2018-02-22T07:55:14.454Z,-3.10
2018-02-22T07:57:41.492Z,-2.70
2018-02-22T08:00:08.619Z,-2.40
2018-02-22T08:02:35.922Z,-2.50
2018-02-22T08:05:03.039Z,-1.70
2018-02-22T08:07:29.258Z,-1.80
2018-02-22T08:09:56.104Z,-0.90
2018-02-22T08:12:22.788Z,-0.60
2018-02-22T08:14:49.248Z,-0.30
2018-02-22T08:17:15.772Z,-0.50
2018-02-22T08:19:42.283Z,-0.30
2018-02-22T08:22:09.296Z,-0.20
2018-02-22T08:24:35.741Z,-0.20
2018-02-22T08:27:06.831Z,0.00
2018-02-22T08:29:41.358Z,0.40
2018-02-22T08:32:07.588Z,0.40
2018-02-22T08:34:33.825Z,0.30
2018-02-22T08:37:00.115Z,0.40
2018-02-22T08:39:26.390Z,0.40
2018-02-22T08:41:52.743Z,0.50
2018-02-22T08:44:19.112Z,0.60
2018-02-22T08:46:46.115Z,0.70
2018-02-22T08:49:12.361Z,0.70
2018-02-22T08:51:38.659Z,0.50
2018-02-22T08:54:04.884Z,0.80
2018-02-22T08:56:31.222Z,0.70
2018-02-22T08:58:58.585Z,0.60
2018-02-22T09:01:24.903Z,0.80
2018-02-22T09:03:51.190Z,1.00
2018-02-22T09:06:17.447Z,1.00
2018-02-22T09:08:44.463Z,0.80
2018-02-22T09:11:10.694Z,0.70
2018-02-22T09:13:36.959Z,0.70
2018-02-22T09:16:05.265Z,1.00
2018-02-22T09:18:31.535Z,1.00
2018-02-22T09:20:58.536Z,1.20
2018-02-22T09:23:24.862Z,1.30
2018-02-22T09:25:51.298Z,1.10
2018-02-22T09:28:17.610Z,1.10
2018-02-22T09:30:44.681Z,1.30
2018-02-22T09:33:11.674Z,1.20
2018-02-22T09:35:37.952Z,1.20
2018-02-22T09:38:04.154Z,1.30
2018-02-22T09:40:36.777Z,1.30
2018-02-22T09:43:03.059Z,1.20
2018-02-22T09:45:30.087Z,1.40
2018-02-22T09:47:56.387Z,1.40
2018-02-22T09:50:22.634Z,1.50
2018-02-22T09:52:48.960Z,1.40
2018-02-22T09:55:15.921Z,1.40
2018-02-22T09:57:42.262Z,1.40
2018-02-22T10:00:08.509Z,1.40
2018-02-22T10:02:34.840Z,1.60
2018-02-22T10:05:01.141Z,1.60
2018-02-22T10:07:27.513Z,1.70
2018-02-22T10:09:54.627Z,1.70
2018-02-22T10:12:21.198Z,1.70
2018-02-22T10:14:48.368Z,1.60
2018-02-22T10:17:15.428Z,2.00
2018-02-22T10:19:41.714Z,2.00
2018-02-22T10:22:08.061Z,2.20
2018-02-22T10:24:34.315Z,2.30
2018-02-22T10:27:00.559Z,2.20
2018-02-22T10:29:27.236Z,2.10
2018-02-22T10:31:53.510Z,1.90
2018-02-22T10:34:19.835Z,2.00
2018-02-22T10:36:46.305Z,1.90
2018-02-22T10:39:12.616Z,2.10
2018-02-22T10:41:38.949Z,2.40
2018-02-22T10:44:05.360Z,2.70
2018-02-22T10:46:31.747Z,2.80
2018-02-22T10:48:58.761Z,2.40
2018-02-22T10:51:25.042Z,2.40
2018-02-22T10:53:51.276Z,2.40
2018-02-22T10:56:17.749Z,2.50
2018-02-22T10:58:52.331Z,2.70
2018-02-22T11:01:24.902Z,2.70
2018-02-22T11:03:51.204Z,2.70
2018-02-22T11:06:17.482Z,2.70
2018-02-22T11:08:43.799Z,2.90
2018-02-22T11:11:14.761Z,3.00
2018-02-22T11:13:42.686Z,3.10
2018-02-22T11:16:12.045Z,3.00
2018-02-22T11:18:38.414Z,3.20
2018-02-22T11:21:04.809Z,3.10
2018-02-22T11:23:31.140Z,3.20
2018-02-22T11:25:58.313Z,3.10
2018-02-22T11:28:24.633Z,3.10
2018-02-22T11:30:54.504Z,3.40
2018-02-22T11:33:21.015Z,3.20
2018-02-22T11:35:47.289Z,3.30
2018-02-22T11:38:13.688Z,3.40
2018-02-22T11:40:42.103Z,3.30
2018-02-22T11:43:08.551Z,3.40
2018-02-22T11:45:34.833Z,3.20
2018-02-22T11:48:01.812Z,3.10
2018-02-22T11:50:28.100Z,3.10
2018-02-22T11:52:54.364Z,3.20
2018-02-22T11:55:21.374Z,3.70
2018-02-22T11:57:47.606Z,3.70
2018-02-22T12:00:13.876Z,3.90
2018-02-22T12:02:40.204Z,3.50
2018-02-22T12:05:06.428Z,3.20
2018-02-22T12:07:33.815Z,3.20
2018-02-22T12:10:00.051Z,3.00
2018-02-22T12:12:26.553Z,3.30
2018-02-22T12:14:52.944Z,3.20
2018-02-22T12:17:19.263Z,3.10
2018-02-22T12:19:45.481Z,3.40
2018-02-22T12:22:12.509Z,3.60
2018-02-22T12:24:54.351Z,3.60
2018-02-22T12:27:21.561Z,4.20
2018-02-22T12:29:47.980Z,4.20
2018-02-22T12:32:16.274Z,4.50
2018-02-22T12:34:42.522Z,4.60
2018-02-22T12:37:08.780Z,4.50
2018-02-22T12:39:34.969Z,4.50
2018-02-22T12:42:04.926Z,4.40
2018-02-22T12:44:31.231Z,4.40
2018-02-22T12:46:57.582Z,4.60
2018-02-22T12:49:24.679Z,4.30
2018-02-22T12:51:51.230Z,4.30
2018-02-22T12:54:17.483Z,4.30
2018-02-22T12:56:43.725Z,4.30
2018-02-22T12:59:09.981Z,4.40
2018-02-22T13:01:42.306Z,4.30
2018-02-22T13:04:09.324Z,4.40
2018-02-22T13:06:35.625Z,4.40
2018-02-22T13:09:12.420Z,4.80
2018-02-22T13:11:38.678Z,4.70
2018-02-22T13:14:04.957Z,4.90
2018-02-22T13:16:31.191Z,4.80
2018-02-22T13:18:57.463Z,4.70
2018-02-22T13:21:24.475Z,4.90
2018-02-22T13:23:50.881Z,4.80
2018-02-22T13:26:20.431Z,4.80
2018-02-22T13:28:46.673Z,5.00
2018-02-22T13:31:12.897Z,4.80
2018-02-22T13:33:51.354Z,4.60
2018-02-22T13:36:17.655Z,4.70
2018-02-22T13:38:56.151Z,5.10
2018-02-22T13:41:22.476Z,5.30
2018-02-22T13:44:01.760Z,5.30
2018-02-22T13:46:29.852Z,5.30
2018-02-22T13:49:11.930Z,5.30
2018-02-22T13:51:38.149Z,5.40
2018-02-22T13:54:08.609Z,5.30
2018-02-22T13:56:47.081Z,5.10
2018-02-22T13:59:14.156Z,5.30
2018-02-22T14:01:53.352Z,5.40
2018-02-22T14:04:19.726Z,5.40
2018-02-22T14:06:47.798Z,4.30
2018-02-22T14:09:14.123Z,4.30
2018-02-22T14:11:40.665Z,4.10
2018-02-22T14:14:12.753Z,4.10
2018-02-22T14:16:39.728Z,4.40
2018-02-22T14:19:05.964Z,4.40
2018-02-22T14:21:36.109Z,4.40
2018-02-22T14:24:03.116Z,5.50
2018-02-22T14:26:29.380Z,5.40
2018-02-22T14:28:55.672Z,5.70
2018-02-22T14:31:21.962Z,5.90
2018-02-22T14:33:48.262Z,5.90
2018-02-22T14:36:15.299Z,5.30
2018-02-22T14:38:42.361Z,4.50
2018-02-22T14:41:09.382Z,4.30
2018-02-22T14:43:36.703Z,4.30
2018-02-22T14:46:07.107Z,4.20
2018-02-22T14:48:33.380Z,4.00
2018-02-22T14:51:03.046Z,4.00
2018-02-22T14:53:29.353Z,4.10
2018-02-22T14:56:01.760Z,4.20
2018-02-22T14:58:28.086Z,4.40
2018-02-22T15:01:06.667Z,4.30
2018-02-22T15:03:33.900Z,4.20
2018-02-22T15:06:00.192Z,4.20
2018-02-22T15:08:27.235Z,4.30
2018-02-22T15:10:53.557Z,4.30
2018-02-22T15:13:19.886Z,4.10
2018-02-22T15:15:46.158Z,3.90
2018-02-22T15:18:12.470Z,4.00
2018-02-22T15:20:38.715Z,4.30
2018-02-22T15:23:09.999Z,4.40
2018-02-22T15:25:36.246Z,4.20
2018-02-22T15:28:02.585Z,4.10
2018-02-22T15:30:28.850Z,3.90
2018-02-22T15:32:55.862Z,3.60
2018-02-22T15:35:22.209Z,3.70
2018-02-22T15:37:48.543Z,3.60
2018-02-22T15:40:14.817Z,3.50
2018-02-22T15:42:41.059Z,3.30
2018-02-22T15:45:07.310Z,3.00
2018-02-22T15:47:33.782Z,2.90
2018-02-22T15:50:00.819Z,2.70
2018-02-22T15:52:27.241Z,2.70
2018-02-22T15:54:53.542Z,2.80
2018-02-22T15:57:20.002Z,2.60
2018-02-22T15:59:48.369Z,2.50
2018-02-22T16:02:15.542Z,2.30
2018-02-22T16:04:49.217Z,2.30
2018-02-22T16:07:15.667Z,2.20
2018-02-22T16:09:41.895Z,2.10
2018-02-22T16:12:08.152Z,2.10
2018-02-22T16:14:36.904Z,2.00
2018-02-22T16:17:03.423Z,2.00
2018-02-22T16:19:29.872Z,1.80
2018-02-22T16:21:56.159Z,1.70
2018-02-22T16:24:22.440Z,1.50
2018-02-22T16:26:48.674Z,1.50
2018-02-22T16:29:14.845Z,1.30
2018-02-22T16:32:27.742Z,1.10
2018-02-22T16:34:53.917Z,1.10
2018-02-22T16:37:20.282Z,0.90
2018-02-22T16:39:46.472Z,0.60
2018-02-22T16:42:12.627Z,0.30
2018-02-22T16:44:51.891Z,0.20
2018-02-22T16:47:18.037Z,0.20
2018-02-22T16:49:50.006Z,0.30
2018-02-22T16:52:16.216Z,0.10
2018-02-22T16:54:43.175Z,0.10
2018-02-22T16:57:10.378Z,0.10
2018-02-22T16:59:36.578Z,0.00
2018-02-22T17:02:03.512Z,0.10
2018-02-22T17:04:29.702Z,0.10
2018-02-22T17:06:55.955Z,0.00
2018-02-22T17:09:34.873Z,0.10
2018-02-22T17:12:01.875Z,0.10
2018-02-22T17:14:28.276Z,0.00
2018-02-22T17:16:55.324Z,0.10
2018-02-22T17:19:22.396Z,0.00
2018-02-22T17:21:49.525Z,0.00
2018-02-22T17:24:15.822Z,0.00
2018-02-22T17:26:49.092Z,-0.20
2018-02-22T17:29:27.478Z,-0.10
2018-02-22T17:31:59.895Z,-0.10
2018-02-22T17:34:31.784Z,-0.30
2018-02-22T17:36:59.702Z,-0.30
2018-02-22T17:39:36.681Z,-0.40
2018-02-22T17:42:03.010Z,-0.30
2018-02-22T17:44:31.344Z,-0.30
2018-02-22T17:46:59.679Z,-0.30
2018-02-22T17:49:26.750Z,-0.40
2018-02-22T17:51:59.805Z,-0.40
2018-02-22T17:54:26.132Z,-0.40
2018-02-22T17:56:52.448Z,-0.40
2018-02-22T17:59:18.946Z,-0.50
2018-02-22T18:01:47.278Z,-0.50
2018-02-22T18:04:14.309Z,-0.40
2018-02-22T18:06:40.719Z,-0.40
2018-02-22T18:09:07.079Z,-0.30
2018-02-22T18:11:33.342Z,-0.10
2018-02-22T18:13:59.652Z,-0.20
2018-02-22T18:16:26.041Z,-0.10
2018-02-22T18:18:52.449Z,-0.30
2018-02-22T18:24:11.994Z,-0.50
2018-02-22T18:26:39.229Z,-0.50
2018-02-22T18:29:06.435Z,-0.40
2018-02-22T18:31:33.494Z,-0.40
2018-02-22T18:34:00.635Z,-0.70
2018-02-22T18:36:27.103Z,-0.70
2018-02-22T18:38:59.540Z,-0.70
2018-02-22T18:41:25.839Z,-0.50
2018-02-22T18:43:58.950Z,-0.40
2018-02-22T18:46:25.290Z,-0.40
2018-02-22T18:51:45.231Z,-0.70
2018-02-22T18:54:11.701Z,-0.60
2018-02-22T18:56:39.044Z,-0.60
2018-02-22T18:59:05.364Z,-0.80
2018-02-22T19:01:32.422Z,-0.90
2018-02-22T19:03:59.429Z,-0.90
2018-02-22T19:06:25.824Z,-0.90
2018-02-22T19:08:56.895Z,-0.80
2018-02-22T19:11:23.933Z,-0.70
2018-02-22T19:13:51.990Z,-0.70
2018-02-22T19:16:18.293Z,-0.70
2018-02-22T19:18:52.270Z,-0.70
2018-02-22T19:21:18.526Z,-0.60
2018-02-22T19:23:44.814Z,-0.70
2018-02-22T19:26:25.045Z,-0.80
2018-02-22T19:28:57.944Z,-0.70
2018-02-22T19:31:42.452Z,-1.00
2018-02-22T19:34:08.856Z,-0.90
2018-02-22T19:36:37.882Z,-1.00
2018-02-22T19:39:04.259Z,-1.10
2018-02-22T19:41:30.627Z,-0.90
2018-02-22T19:43:56.945Z,-1.00
2018-02-22T19:46:23.186Z,-1.00
2018-02-22T19:48:53.070Z,-1.00
2018-02-22T19:51:21.385Z,-1.00
2018-02-22T19:53:47.664Z,-1.00
2018-02-22T19:56:13.957Z,-0.90
2018-02-22T19:58:50.410Z,-0.80
2018-02-22T20:01:18.788Z,-0.70
2018-02-22T20:03:45.070Z,-0.80
2018-02-22T20:06:11.293Z,-0.90
2018-02-22T20:08:45.638Z,-1.10
2018-02-22T20:11:12.722Z,-1.00
2018-02-22T20:13:38.994Z,-1.10
2018-02-22T20:16:05.346Z,-1.10
2018-02-22T20:18:33.766Z,-1.20
2018-02-22T20:21:00.897Z,-1.20
2018-02-22T20:23:27.174Z,-1.20
2018-02-22T20:25:54.201Z,-1.30
2018-02-22T20:28:24.632Z,-1.20
2018-02-22T20:30:50.976Z,-1.40
2018-02-22T20:33:17.242Z,-1.30
2018-02-22T20:35:43.498Z,-1.40
2018-02-22T20:38:10.478Z,-1.40
2018-02-22T20:40:36.790Z,-1.50
2018-02-22T20:43:03.112Z,-1.50
2018-02-22T20:45:36.679Z,-1.50
2018-02-22T20:48:03.010Z,-1.40
2018-02-22T20:50:29.326Z,-1.40
2018-02-22T20:52:59.542Z,-1.40
2018-02-22T20:55:25.963Z,-1.50
2018-02-22T20:58:14.084Z,-1.70
2018-02-22T21:00:41.134Z,-1.70
2018-02-22T21:03:07.387Z,-1.70
2018-02-22T21:05:34.802Z,-1.70
2018-02-22T21:08:01.082Z,-1.40
2018-02-22T21:10:28.424Z,-1.60
2018-02-22T21:12:59.484Z,-1.60
2018-02-22T21:15:25.795Z,-1.60
2018-02-22T21:17:52.084Z,-1.40
2018-02-22T21:20:21.270Z,-1.40
2018-02-22T21:22:47.565Z,-1.40
2018-02-22T21:25:13.848Z,-1.60
2018-02-22T21:27:40.125Z,-1.70
2018-02-22T21:30:13.833Z,-1.50
2018-02-22T21:32:40.380Z,-1.80
2018-02-22T21:35:06.679Z,-1.80
2018-02-22T21:37:35.220Z,-1.80
2018-02-22T21:40:01.563Z,-2.00
2018-02-22T21:42:32.164Z,-2.10
2018-02-22T21:44:59.425Z,-2.00
2018-02-22T21:47:25.816Z,-2.30
2018-02-22T21:49:52.192Z,-2.00
2018-02-22T21:52:19.202Z,-2.20
2018-02-22T21:54:52.971Z,-2.10
2018-02-22T21:57:19.345Z,-2.10
2018-02-22T21:59:45.623Z,-2.20
2018-02-22T22:02:16.214Z,-2.20
2018-02-22T22:04:42.572Z,-2.20
2018-02-22T22:07:08.946Z,-2.20
2018-02-22T22:09:35.244Z,-2.30
2018-02-22T22:12:01.557Z,-2.50
2018-02-22T22:14:33.883Z,-2.60
2018-02-22T22:17:00.226Z,-2.60
2018-02-22T22:19:26.507Z,-2.70
2018-02-22T22:21:52.809Z,-2.80
2018-02-22T22:24:19.073Z,-2.80
2018-02-22T22:26:45.367Z,-2.90
2018-02-22T22:29:16.375Z,-3.10
2018-02-22T22:31:42.641Z,-3.10
2018-02-22T22:34:08.966Z,-3.10
2018-02-22T22:36:35.431Z,-3.20
2018-02-22T22:39:02.440Z,-3.20
2018-02-22T22:41:28.847Z,-3.20
2018-02-22T22:43:55.914Z,-3.10
2018-02-22T22:46:23.095Z,-3.00
2018-02-22T22:48:49.414Z,-3.10
2018-02-22T22:51:16.755Z,-3.10
2018-02-22T22:53:49.250Z,-3.10
2018-02-22T22:56:15.624Z,-3.00
2018-02-22T22:58:42.725Z,-3.10
2018-02-22T23:01:09.038Z,-3.10
2018-02-22T23:03:38.574Z,-3.30
2018-02-22T23:06:04.841Z,-3.40
2018-02-22T23:08:31.125Z,-3.50
2018-02-22T23:11:09.746Z,-3.50
2018-02-22T23:13:36.775Z,-3.50
2018-02-22T23:16:03.249Z,-3.50
2018-02-22T23:18:30.282Z,-3.50
2018-02-22T23:20:56.607Z,-3.50
2018-02-22T23:23:22.924Z,-3.20
2018-02-22T23:25:49.238Z,-3.30
2018-02-22T23:28:21.395Z,-3.50
2018-02-22T23:30:47.669Z,-3.50
2018-02-22T23:33:15.814Z,-3.40
2018-02-22T23:35:51.045Z,-3.50
2018-02-22T23:38:17.303Z,-3.40
2018-02-22T23:41:04.822Z,-3.20
2018-02-22T23:43:31.119Z,-3.20
2018-02-22T23:45:57.471Z,-2.80
2018-02-22T23:48:24.577Z,-2.60
2018-02-22T23:50:50.875Z,-2.60
2018-02-22T23:53:23.391Z,-2.80
2018-02-22T23:55:49.801Z,-2.80
2018-02-22T23:58:16.133Z,-2.80
